METAR de aeropuertos de Murcia y cercanos

 

LEMI - Murcia/Corvera
Actualización: 18/06/2024 16:00
Few Clouds
Few Clouds
 Viento del SE
Viento: SE 17 km/h, Racha: 35 km/h
Temperatura: 28°C
Heat Index: 28°C
Rocío: 17°C
Humedad: 51%
Barómetro: 1012 hPa
Nubosidad: Few Clouds
Visibilidad: 10 km
Cloud details: Few Clouds 610 m
2024/06/18 14:00 LEMI 181400Z 14009G19KT 100V190 9999 FEW020 28/17 Q1012
LERI - Murcia/Alcantarilla
Actualización: 18/06/2024 16:00
Despejado
Despejado
 Viento del SE
Viento: SE 22 km/h
Temperatura: 31°C
Rocío: 14°C
Humedad: 35%
Barómetro: 1010 hPa
Resumen: Despejado
Visibilidad: greater than 10 km
2024/06/18 14:00 LERI 181400Z 13012KT 100V160 CAVOK 31/14 Q1010 NOSIG
LELC - Murcia/San Javier
Actualización: 18/06/2024 16:00
Despejado
Despejado
 Viento del SSE
Viento: SSE 17 km/h
Temperatura: 28°C
Heat Index: 29°C
Rocío: 20°C
Humedad: 62%
Barómetro: 1012 hPa
Resumen: Despejado
Visibilidad: greater than 10 km
2024/06/18 14:00 LELC 181400Z 15009KT 110V210 CAVOK 28/20 Q1012 NOSIG
 
LEAL - Alicante
Actualización: 18/06/2024 16:00
Few Clouds
Few Clouds
 Viento del SSE
Viento: SSE 15 km/h
Temperatura: 28°C
Heat Index: 29°C
Rocío: 18°C
Humedad: 55%
Barómetro: 1012 hPa
Nubosidad: Few Clouds
Visibilidad: 10 km
Cloud details: Few Clouds 792 m
2024/06/18 14:00 LEAL 181400Z 16008KT 100V240 9999 FEW026 28/18 Q1012 NOSIG
LEAB - Albacete
Actualización: 18/06/2024 16:00
Despejado
Despejado
 Viento del varies
Viento: varies 6 km/h
Temperatura: 30°C
Rocío: 8°C
Humedad: 25%
Barómetro: 1013 hPa
Resumen: Despejado
Visibilidad: greater than 10 km
2024/06/18 14:00 LEAB 181400Z VRB03KT CAVOK 30/08 Q1013 NOSIG
LEAM - Almería
Actualización: 18/06/2024 16:00
Despejado
Despejado
 Viento del SSO
Viento: SSO 20 km/h
Temperatura: 25°C
Rocío: 19°C
Humedad: 69%
Barómetro: 1012 hPa
Resumen: Despejado
Visibilidad: greater than 10 km
2024/06/18 14:00 LEAM 181400Z 20011KT 170V230 CAVOK 25/19 Q1012

La estación de MeteoMurcia.com, publica sus datos en los siguientes proyectos:

Weather Underground PWS IMURCIAP2 Meteoclimatic www.awekas.at

Web Analytics

Clicky